createdAt,value
2023-11-26T00:01:18.116Z,1009.7
2023-11-26T00:06:25.526Z,1009.9
2023-11-26T00:11:32.024Z,1009.8
2023-11-26T00:16:38.431Z,1009.8
2023-11-26T00:21:44.683Z,1009.9
2023-11-26T00:27:15.134Z,1010.0
2023-11-26T00:31:57.640Z,1009.9
2023-11-26T00:37:04.594Z,1009.9
2023-11-26T00:42:10.977Z,1009.9
2023-11-26T00:47:45.513Z,1009.9
2023-11-26T00:52:23.757Z,1010.0
2023-11-26T00:57:50.160Z,1009.9
2023-11-26T01:02:36.637Z,1010.0
2023-11-26T01:07:42.933Z,1009.9
2023-11-26T01:12:52.837Z,1009.9
2023-11-26T01:17:59.388Z,1009.9
2023-11-26T01:23:05.702Z,1009.9
2023-11-26T01:28:12.056Z,1009.8
2023-11-26T01:33:18.437Z,1009.8
2023-11-26T01:38:25.099Z,1009.8
2023-11-26T01:43:31.363Z,1009.8
2023-11-26T01:48:37.727Z,1009.8
2023-11-26T01:54:04.188Z,1009.8
2023-11-26T01:58:50.506Z,1009.7
2023-11-26T02:04:00.908Z,1009.8
2023-11-26T02:09:07.298Z,1009.8
2023-11-26T02:14:09.703Z,1009.7
2023-11-26T02:19:16.022Z,1009.8
2023-11-26T02:25:19.564Z,1009.8
2023-11-26T02:30:06.879Z,1009.8
2023-11-26T02:35:13.277Z,1009.7
2023-11-26T02:40:19.639Z,1009.7
2023-11-26T02:46:00.293Z,1009.6
2023-11-26T02:50:32.574Z,1009.7
2023-11-26T02:55:38.924Z,1009.7
2023-11-26T03:06:18.372Z,1009.8
2023-11-26T03:12:36.943Z,1009.6
2023-11-26T03:17:45.919Z,1009.7
2023-11-26T03:22:52.335Z,1009.7
2023-11-26T03:28:18.806Z,1009.7
2023-11-26T03:33:05.407Z,1009.8
2023-11-26T03:37:50.773Z,1009.8
2023-11-26T03:43:17.251Z,1009.8
2023-11-26T03:48:02.583Z,1009.9
2023-11-26T03:53:11.565Z,1009.7
2023-11-26T03:58:17.952Z,1009.7
2023-11-26T04:03:24.374Z,1009.8
2023-11-26T04:08:30.747Z,1009.8
2023-11-26T04:13:37.085Z,1009.9
2023-11-26T04:18:43.497Z,1009.9
2023-11-26T04:23:49.838Z,1009.8
2023-11-26T04:29:24.334Z,1009.8
2023-11-26T04:34:08.209Z,1009.7
2023-11-26T04:39:10.585Z,1009.8
2023-11-26T04:44:20.574Z,1009.8
2023-11-26T04:49:26.906Z,1009.8
2023-11-26T04:55:13.346Z,1009.8
2023-11-26T05:00:10.793Z,1009.8
2023-11-26T05:05:17.151Z,1009.9
2023-11-26T05:10:33.524Z,1009.8
2023-11-26T05:15:39.885Z,1009.9
2023-11-26T05:20:46.331Z,1009.9
2023-11-26T05:25:52.669Z,1009.8
2023-11-26T05:30:59.065Z,1009.9
2023-11-26T05:36:29.539Z,1009.8
2023-11-26T05:41:11.837Z,1009.8
2023-11-26T05:46:18.216Z,1009.8
2023-11-26T05:51:24.582Z,1009.8
2023-11-26T05:56:20.967Z,1009.8
2023-11-26T06:01:36.387Z,1009.7
2023-11-26T06:06:44.374Z,1009.7
2023-11-26T06:11:50.183Z,1009.5
2023-11-26T06:16:56.549Z,1009.7
2023-11-26T06:21:52.920Z,1009.6
2023-11-26T06:27:10.986Z,1009.6
2023-11-26T06:32:17.251Z,1009.5
2023-11-26T06:37:27.188Z,1009.6
2023-11-26T06:42:33.866Z,1009.7
2023-11-26T06:47:40.537Z,1009.6
2023-11-26T06:52:46.646Z,1009.5
2023-11-26T06:57:53.065Z,1009.6
2023-11-26T07:03:27.461Z,1009.6
2023-11-26T07:08:09.728Z,1009.7
2023-11-26T07:17:15.193Z,1009.6
2023-11-26T07:18:23.068Z,1009.7
2023-11-26T07:23:29.449Z,1009.7
2023-11-26T07:28:38.596Z,1009.8
2023-11-26T07:38:50.481Z,1009.8
2023-11-26T07:44:20.828Z,1009.8
2023-11-26T07:49:41.259Z,1009.9
2023-11-26T07:54:15.831Z,1009.9
2023-11-26T07:59:35.970Z,1009.9
2023-11-26T08:04:59.995Z,1009.8
2023-11-26T08:09:33.304Z,1009.8
2023-11-26T08:15:25.744Z,1009.7
2023-11-26T08:20:53.168Z,1009.6
2023-11-26T08:25:39.522Z,1009.7
2023-11-26T08:30:45.933Z,1009.7
2023-11-26T08:35:52.248Z,1009.8
2023-11-26T08:40:48.636Z,1009.7
2023-11-26T08:46:05.042Z,1009.7
2023-11-26T08:51:11.392Z,1009.7
2023-11-26T08:56:21.361Z,1009.8
2023-11-26T09:01:27.816Z,1009.8
2023-11-26T09:06:34.106Z,1009.6
2023-11-26T09:12:00.514Z,1009.7
2023-11-26T09:16:46.853Z,1009.6
2023-11-26T09:21:53.245Z,1009.6
2023-11-26T09:26:59.587Z,1009.6
2023-11-26T09:32:05.989Z,1009.6
2023-11-26T09:37:46.416Z,1009.6
2023-11-26T09:42:53.873Z,1009.6
2023-11-26T09:48:00.275Z,1009.7
2023-11-26T09:53:06.564Z,1009.7
2023-11-26T09:58:12.938Z,1009.7
2023-11-26T10:03:19.401Z,1009.7
2023-11-26T10:08:25.680Z,1009.6
2023-11-26T10:13:32.050Z,1009.6
2023-11-26T10:18:38.494Z,1009.6
2023-11-26T10:23:44.818Z,1009.5
2023-11-26T10:28:51.219Z,1009.6
2023-11-26T10:33:57.737Z,1009.6
2023-11-26T10:39:04.035Z,1009.6
2023-11-26T10:44:10.436Z,1009.7
2023-11-26T10:49:16.852Z,1009.5
2023-11-26T10:55:00.346Z,1009.5
2023-11-26T11:00:08.155Z,1009.5
2023-11-26T11:05:14.053Z,1009.3
2023-11-26T11:10:20.400Z,1009.3
2023-11-26T11:16:00.883Z,1009.1
2023-11-26T11:20:33.181Z,1009.1
2023-11-26T11:25:39.535Z,1009.1
2023-11-26T11:30:46.062Z,1009.1
2023-11-26T11:35:52.333Z,1009.0
2023-11-26T11:40:58.694Z,1009.1
2023-11-26T11:46:05.058Z,1009.0
2023-11-26T11:51:11.573Z,1009.0
2023-11-26T11:56:07.854Z,1009.0
2023-11-26T12:01:24.218Z,1009.0
2023-11-26T12:06:30.635Z,1009.1
2023-11-26T12:11:41.003Z,1009.0
2023-11-26T12:16:43.373Z,1009.0
2023-11-26T12:21:49.791Z,1009.0
2023-11-26T12:26:56.149Z,1009.0
2023-11-26T12:32:02.490Z,1009.0
2023-11-26T12:37:08.916Z,1009.0
2023-11-26T12:42:15.268Z,1009.1
2023-11-26T12:47:21.663Z,1009.0
2023-11-26T12:52:18.039Z,1009.0
2023-11-26T12:57:34.437Z,1008.9
2023-11-26T13:02:40.951Z,1008.8
2023-11-26T13:07:47.214Z,1008.8
2023-11-26T13:12:53.634Z,1008.8
2023-11-26T13:18:28.374Z,1008.7
2023-11-26T13:23:06.339Z,1008.7
2023-11-26T13:28:12.676Z,1008.7
2023-11-26T13:33:19.204Z,1008.7
2023-11-26T13:38:29.454Z,1008.7
2023-11-26T13:44:05.949Z,1008.7
2023-11-26T13:49:13.467Z,1008.6
2023-11-26T13:54:19.704Z,1008.6
2023-11-26T13:59:26.056Z,1008.6
2023-11-26T14:04:32.449Z,1008.6
2023-11-26T14:09:38.896Z,1008.5
2023-11-26T14:14:49.226Z,1008.5
2023-11-26T14:19:51.582Z,1008.5
2023-11-26T14:24:58.017Z,1008.6
2023-11-26T14:30:04.324Z,1008.6
2023-11-26T14:35:10.709Z,1008.5
2023-11-26T14:40:17.090Z,1008.5
2023-11-26T14:45:23.570Z,1008.5
2023-11-26T14:50:29.803Z,1008.5
2023-11-26T14:55:36.193Z,1008.4
2023-11-26T15:00:42.715Z,1008.4
2023-11-26T15:05:48.913Z,1008.3
2023-11-26T15:10:55.309Z,1008.3
2023-11-26T15:16:01.774Z,1008.4
2023-11-26T15:21:28.090Z,1008.4
2023-11-26T15:31:27.206Z,1008.3
2023-11-26T15:36:39.345Z,1008.3
2023-11-26T15:42:54.465Z,1008.3
2023-11-26T15:48:01.855Z,1008.2
2023-11-26T15:53:08.177Z,1008.2
2023-11-26T15:58:14.555Z,1008.2
2023-11-26T16:03:11.041Z,1008.2
2023-11-26T16:08:27.334Z,1008.2
2023-11-26T16:13:55.296Z,1008.1
2023-11-26T16:18:31.750Z,1008.1
2023-11-26T16:24:29.044Z,1008.1
2023-11-26T16:29:29.457Z,1008.0
2023-11-26T16:34:25.826Z,1008.0
2023-11-26T16:39:32.196Z,1008.0
2023-11-26T16:44:48.585Z,1007.9
2023-11-26T16:49:58.978Z,1008.0
2023-11-26T16:55:01.399Z,1008.1
2023-11-26T17:00:27.769Z,1008.0
2023-11-26T17:05:14.101Z,1008.0
2023-11-26T17:10:44.487Z,1008.0
2023-11-26T17:15:26.939Z,1008.0
2023-11-26T17:20:33.222Z,1008.0
2023-11-26T17:25:39.572Z,1008.0
2023-11-26T17:30:48.983Z,1008.0
2023-11-26T17:35:52.355Z,1008.0
2023-11-26T17:41:36.769Z,1008.0
2023-11-26T17:46:09.137Z,1008.0
2023-11-26T17:51:35.564Z,1008.0
2023-11-26T17:56:17.818Z,1008.0
2023-11-26T18:01:24.255Z,1007.9
2023-11-26T18:06:58.702Z,1007.9
2023-11-26T18:11:40.480Z,1007.9
2023-11-26T18:16:50.611Z,1007.9
2023-11-26T18:21:53.349Z,1007.8
2023-11-26T18:27:03.648Z,1007.8
2023-11-26T18:38:07.455Z,1007.7
2023-11-26T18:42:44.863Z,1007.7
2023-11-26T18:48:01.237Z,1007.7
2023-11-26T18:53:07.570Z,1007.7
2023-11-26T18:58:13.993Z,1007.6
2023-11-26T19:03:20.457Z,1007.5
2023-11-26T19:10:08.135Z,1007.6
2023-11-26T19:14:32.610Z,1007.5
2023-11-26T19:20:03.131Z,1007.5
2023-11-26T19:26:05.622Z,1007.5
2023-11-26T19:29:56.480Z,1007.4
2023-11-26T19:35:38.525Z,1007.4
2023-11-26T19:40:38.124Z,1007.4
2023-11-26T19:45:17.251Z,1007.3
2023-11-26T19:50:47.654Z,1007.2
2023-11-26T20:11:13.834Z,1007.2
2023-11-26T20:16:21.198Z,1007.1
2023-11-26T20:21:27.602Z,1007.0
2023-11-26T20:26:54.031Z,1007.0
2023-11-26T20:31:40.381Z,1007.0
2023-11-26T20:36:51.101Z,1007.0
2023-11-26T20:43:21.312Z,1006.9
2023-11-26T20:47:44.601Z,1006.8
2023-11-26T20:52:50.941Z,1006.7
2023-11-26T20:57:57.478Z,1006.8
2023-11-26T21:03:03.945Z,1006.7
2023-11-26T21:08:44.311Z,1006.6
2023-11-26T21:13:16.664Z,1006.5
2023-11-26T21:18:13.023Z,1006.4
2023-11-26T21:23:29.392Z,1006.5
2023-11-26T21:28:25.735Z,1006.4
2023-11-26T21:33:42.208Z,1006.3
2023-11-26T21:38:48.504Z,1006.3
2023-11-26T21:43:54.915Z,1006.2
2023-11-26T21:49:01.389Z,1006.1
2023-11-26T21:54:46.154Z,1006.2
2023-11-26T21:59:14.469Z,1006.1
2023-11-26T22:09:28.411Z,1006.0
2023-11-26T22:14:34.873Z,1006.1
2023-11-26T22:19:45.296Z,1006.0
2023-11-26T22:24:37.693Z,1006.0
2023-11-26T22:30:22.080Z,1005.8
2023-11-26T22:35:03.119Z,1005.8
2023-11-26T22:40:33.580Z,1005.8
2023-11-26T22:46:34.276Z,1005.8
2023-11-26T22:50:22.452Z,1005.8
2023-11-26T22:55:28.819Z,1005.7
2023-11-26T23:05:40.607Z,1005.7
2023-11-26T23:10:47.920Z,1005.7
2023-11-26T23:15:58.355Z,1005.7
2023-11-26T23:21:00.759Z,1005.6
2023-11-26T23:27:56.986Z,1005.5
2023-11-26T23:31:17.253Z,1005.4
2023-11-26T23:36:23.285Z,1005.2
2023-11-26T23:41:33.643Z,1005.3
2023-11-26T23:47:25.101Z,1005.2
2023-11-26T23:57:42.501Z,1005.1
